Aline, Oklahoma
Current Conditions -  °F | °C
As of 4:50 PM on Tuesday 21 Oct 2014 (Local Time) from KAVK Reporting Station
Few Clouds Few Clouds  
Wind Chill: 28°   Ceiling: Unl
Heat Index: 28°   Visibility: 10mi
Dew Point: 12°   Wind: 17mph
Humidity: 37%   Direction: 180°S
Pressure: 30"   Gusts: NA
Location:  36.51°N, 98.45°W
Report Text: KAVK 212150Z AUTO 18015KT 10SM FEW080 28/12 A3000 RMK AO2
Loading
Personal Weather Stations






























Interactive Weather Map
Tropical Storm Tracking
New forecast layout! Learn more

10-Day Weather Forecast

Advertisements
Track Severe Weather on mobile